sensor_id;sensor_type;location;lat;lon;timestamp;pressure;altitude;pressure_sealevel;temperature;humidity
37304;BME280;23188;51.188;16.374;2023-02-02T00:00:21;99534.64;;;4.41;100.00
37304;BME280;23188;51.188;16.374;2023-02-02T00:04:43;99539.11;;;4.46;100.00
37304;BME280;23188;51.188;16.374;2023-02-02T00:08:45;99528.77;;;4.45;100.00
37304;BME280;23188;51.188;16.374;2023-02-02T00:12:47;99525.77;;;4.43;100.00
37304;BME280;23188;51.188;16.374;2023-02-02T00:16:53;99524.61;;;4.39;100.00
37304;BME280;23188;51.188;16.374;2023-02-02T00:20:57;99519.94;;;4.38;100.00
37304;BME280;23188;51.188;16.374;2023-02-02T00:24:58;99510.20;;;4.39;99.89
37304;BME280;23188;51.188;16.374;2023-02-02T00:33:57;99502.95;;;4.48;98.71
37304;BME280;23188;51.188;16.374;2023-02-02T00:38:35;99506.70;;;4.50;98.67
37304;BME280;23188;51.188;16.374;2023-02-02T00:42:38;99504.38;;;4.50;98.29
37304;BME280;23188;51.188;16.374;2023-02-02T00:46:40;99508.05;;;4.50;97.78
37304;BME280;23188;51.188;16.374;2023-02-02T00:50:42;99503.80;;;4.54;97.75
37304;BME280;23188;51.188;16.374;2023-02-02T00:54:44;99527.44;;;4.55;97.18
37304;BME280;23188;51.188;16.374;2023-02-02T01:03:50;99521.73;;;4.64;96.38
37304;BME280;23188;51.188;16.374;2023-02-02T01:08:17;99521.30;;;4.65;95.86
37304;BME280;23188;51.188;16.374;2023-02-02T01:12:18;99523.45;;;4.67;95.56
37304;BME280;23188;51.188;16.374;2023-02-02T01:16:20;99514.27;;;4.65;95.09
37304;BME280;23188;51.188;16.374;2023-02-02T01:20:25;99524.29;;;4.62;94.47
37304;BME280;23188;51.188;16.374;2023-02-02T01:30:07;99511.61;;;4.70;93.53
37304;BME280;23188;51.188;16.374;2023-02-02T01:34:13;99505.90;;;4.74;93.52
37304;BME280;23188;51.188;16.374;2023-02-02T01:38:15;99494.19;;;4.73;92.97
37304;BME280;23188;51.188;16.374;2023-02-02T01:42:29;99497.55;;;4.76;93.41
37304;BME280;23188;51.188;16.374;2023-02-02T01:46:35;99491.75;;;4.78;93.46
37304;BME280;23188;51.188;16.374;2023-02-02T01:50:37;99485.17;;;4.79;93.22
37304;BME280;23188;51.188;16.374;2023-02-02T01:54:46;99505.80;;;4.78;93.46
37304;BME280;23188;51.188;16.374;2023-02-02T01:58:50;99495.79;;;4.83;93.54
37304;BME280;23188;51.188;16.374;2023-02-02T02:02:55;99490.30;;;4.84;93.41
37304;BME280;23188;51.188;16.374;2023-02-02T02:07:24;99484.60;;;4.82;93.91
37304;BME280;23188;51.188;16.374;2023-02-02T02:11:26;99483.95;;;4.84;93.49
37304;BME280;23188;51.188;16.374;2023-02-02T02:16:00;99486.50;;;4.80;93.70
37304;BME280;23188;51.188;16.374;2023-02-02T02:40:21;99487.46;;;4.89;92.31
37304;BME280;23188;51.188;16.374;2023-02-02T02:44:52;99475.55;;;4.91;91.79
37304;BME280;23188;51.188;16.374;2023-02-02T02:48:59;99469.95;;;4.94;91.27
37304;BME280;23188;51.188;16.374;2023-02-02T02:53:07;99456.20;;;4.94;91.59
37304;BME280;23188;51.188;16.374;2023-02-02T03:01:37;99454.93;;;4.92;90.50
37304;BME280;23188;51.188;16.374;2023-02-02T03:05:53;99457.55;;;4.90;90.66
37304;BME280;23188;51.188;16.374;2023-02-02T03:10:40;99434.84;;;4.93;89.32
37304;BME280;23188;51.188;16.374;2023-02-02T03:19:38;99420.35;;;4.99;88.76
37304;BME280;23188;51.188;16.374;2023-02-02T03:23:47;99426.41;;;4.97;89.30
37304;BME280;23188;51.188;16.374;2023-02-02T03:28:23;99417.85;;;4.92;89.59
37304;BME280;23188;51.188;16.374;2023-02-02T03:55:37;99396.25;;;5.04;89.19
37304;BME280;23188;51.188;16.374;2023-02-02T04:00:12;99387.09;;;4.99;88.81
37304;BME280;23188;51.188;16.374;2023-02-02T04:04:15;99393.20;;;5.03;88.62
37304;BME280;23188;51.188;16.374;2023-02-02T04:08:20;99399.42;;;5.07;88.50
37304;BME280;23188;51.188;16.374;2023-02-02T04:12:22;99397.18;;;5.06;89.00
37304;BME280;23188;51.188;16.374;2023-02-02T04:16:24;99388.83;;;5.10;88.47
37304;BME280;23188;51.188;16.374;2023-02-02T04:21:03;99383.98;;;5.06;88.18
37304;BME280;23188;51.188;16.374;2023-02-02T04:25:05;99379.34;;;5.07;88.09
37304;BME280;23188;51.188;16.374;2023-02-02T04:29:07;99387.98;;;5.09;88.73
37304;BME280;23188;51.188;16.374;2023-02-02T04:33:09;99383.07;;;5.14;87.59
37304;BME280;23188;51.188;16.374;2023-02-02T04:41:57;99384.05;;;5.22;87.44
37304;BME280;23188;51.188;16.374;2023-02-02T04:46:01;99393.23;;;5.17;87.43
37304;BME280;23188;51.188;16.374;2023-02-02T04:50:03;99405.61;;;5.21;87.51
37304;BME280;23188;51.188;16.374;2023-02-02T04:54:13;99403.70;;;5.25;87.08
37304;BME280;23188;51.188;16.374;2023-02-02T04:58:32;99405.12;;;5.27;87.14
37304;BME280;23188;51.188;16.374;2023-02-02T05:11:53;99413.00;;;5.30;86.79
37304;BME280;23188;51.188;16.374;2023-02-02T05:24:53;99414.10;;;5.30;86.92
37304;BME280;23188;51.188;16.374;2023-02-02T05:42:46;99438.81;;;5.28;87.47
37304;BME280;23188;51.188;16.374;2023-02-02T05:46:52;99431.31;;;5.25;87.90
37304;BME280;23188;51.188;16.374;2023-02-02T05:51:17;99447.59;;;5.19;89.98
37304;BME280;23188;51.188;16.374;2023-02-02T05:55:25;99443.14;;;5.12;90.90
37304;BME280;23188;51.188;16.374;2023-02-02T05:59:28;99456.27;;;5.10;93.07
37304;BME280;23188;51.188;16.374;2023-02-02T06:03:33;99460.23;;;4.99;94.40
37304;BME280;23188;51.188;16.374;2023-02-02T06:07:37;99457.71;;;4.90;94.66
37304;BME280;23188;51.188;16.374;2023-02-02T06:15:54;99477.66;;;4.86;93.46
37304;BME280;23188;51.188;16.374;2023-02-02T06:19:59;99465.85;;;4.89;92.57
37304;BME280;23188;51.188;16.374;2023-02-02T06:24:02;99494.89;;;4.91;92.63
37304;BME280;23188;51.188;16.374;2023-02-02T06:32:39;99512.66;;;4.90;95.10
37304;BME280;23188;51.188;16.374;2023-02-02T06:36:45;99523.98;;;4.90;96.50
37304;BME280;23188;51.188;16.374;2023-02-02T06:40:52;99517.40;;;4.86;97.37
37304;BME280;23188;51.188;16.374;2023-02-02T06:44:58;99547.58;;;4.81;98.18
37304;BME280;23188;51.188;16.374;2023-02-02T06:49:01;99555.77;;;4.82;99.73
37304;BME280;23188;51.188;16.374;2023-02-02T06:53:06;99564.88;;;4.77;100.00
37304;BME280;23188;51.188;16.374;2023-02-02T06:57:09;99575.30;;;4.69;100.00
37304;BME280;23188;51.188;16.374;2023-02-02T07:01:14;99592.38;;;4.66;100.00
37304;BME280;23188;51.188;16.374;2023-02-02T07:05:18;99579.58;;;4.68;100.00
37304;BME280;23188;51.188;16.374;2023-02-02T07:09:21;99579.21;;;4.63;100.00
37304;BME280;23188;51.188;16.374;2023-02-02T07:13:24;99581.36;;;4.65;100.00
37304;BME280;23188;51.188;16.374;2023-02-02T07:17:27;99596.02;;;4.69;100.00
37304;BME280;23188;51.188;16.374;2023-02-02T07:21:30;99609.53;;;4.69;100.00
37304;BME280;23188;51.188;16.374;2023-02-02T07:25:36;99604.89;;;4.68;100.00
37304;BME280;23188;51.188;16.374;2023-02-02T07:29:39;99627.11;;;4.64;100.00
37304;BME280;23188;51.188;16.374;2023-02-02T07:33:43;99630.23;;;4.61;100.00
37304;BME280;23188;51.188;16.374;2023-02-02T07:37:54;99642.35;;;4.59;100.00
37304;BME280;23188;51.188;16.374;2023-02-02T07:41:59;99645.53;;;4.51;100.00
37304;BME280;23188;51.188;16.374;2023-02-02T07:46:04;99648.42;;;4.52;100.00
37304;BME280;23188;51.188;16.374;2023-02-02T07:50:09;99646.23;;;4.48;100.00
37304;BME280;23188;51.188;16.374;2023-02-02T07:54:12;99664.34;;;4.53;100.00
37304;BME280;23188;51.188;16.374;2023-02-02T07:58:15;99662.61;;;4.61;100.00
37304;BME280;23188;51.188;16.374;2023-02-02T08:02:19;99674.14;;;4.70;100.00
37304;BME280;23188;51.188;16.374;2023-02-02T08:06:26;99669.77;;;4.80;100.00
37304;BME280;23188;51.188;16.374;2023-02-02T08:10:29;99697.84;;;4.85;100.00
37304;BME280;23188;51.188;16.374;2023-02-02T08:14:32;99719.56;;;4.92;100.00
37304;BME280;23188;51.188;16.374;2023-02-02T08:18:38;99729.26;;;4.94;100.00
37304;BME280;23188;51.188;16.374;2023-02-02T08:22:45;99735.77;;;5.02;100.00
37304;BME280;23188;51.188;16.374;2023-02-02T08:26:47;99754.48;;;5.01;100.00
37304;BME280;23188;51.188;16.374;2023-02-02T08:30:50;99772.14;;;4.91;100.00
37304;BME280;23188;51.188;16.374;2023-02-02T08:34:52;99787.91;;;4.79;100.00
37304;BME280;23188;51.188;16.374;2023-02-02T08:39:15;99796.78;;;4.71;100.00
37304;BME280;23188;51.188;16.374;2023-02-02T08:43:28;99799.67;;;4.65;100.00
37304;BME280;23188;51.188;16.374;2023-02-02T08:47:31;99809.21;;;4.56;100.00
37304;BME280;23188;51.188;16.374;2023-02-02T08:52:12;99807.66;;;4.44;100.00
37304;BME280;23188;51.188;16.374;2023-02-02T09:00:18;99816.13;;;4.46;100.00
37304;BME280;23188;51.188;16.374;2023-02-02T09:04:22;99830.08;;;4.53;100.00
37304;BME280;23188;51.188;16.374;2023-02-02T09:08:24;99846.79;;;4.53;100.00
37304;BME280;23188;51.188;16.374;2023-02-02T09:12:28;99841.60;;;4.46;100.00
37304;BME280;23188;51.188;16.374;2023-02-02T09:16:33;99840.70;;;4.46;100.00
37304;BME280;23188;51.188;16.374;2023-02-02T09:20:38;99853.73;;;4.49;100.00
37304;BME280;23188;51.188;16.374;2023-02-02T09:24:42;99871.91;;;4.53;100.00
37304;BME280;23188;51.188;16.374;2023-02-02T09:28:48;99867.70;;;4.61;100.00
37304;BME280;23188;51.188;16.374;2023-02-02T09:32:51;99876.16;;;4.66;100.00
37304;BME280;23188;51.188;16.374;2023-02-02T09:36:54;99884.17;;;4.76;100.00
37304;BME280;23188;51.188;16.374;2023-02-02T09:40:59;99878.14;;;4.77;100.00
37304;BME280;23188;51.188;16.374;2023-02-02T09:45:18;99886.33;;;4.73;100.00
37304;BME280;23188;51.188;16.374;2023-02-02T09:53:58;99888.34;;;5.04;100.00
37304;BME280;23188;51.188;16.374;2023-02-02T10:02:39;99877.14;;;5.52;99.93
37304;BME280;23188;51.188;16.374;2023-02-02T10:06:51;99864.20;;;5.61;99.36
37304;BME280;23188;51.188;16.374;2023-02-02T10:10:55;99874.54;;;5.54;98.94
37304;BME280;23188;51.188;16.374;2023-02-02T10:19:32;99901.00;;;5.58;99.19
37304;BME280;23188;51.188;16.374;2023-02-02T10:23:40;99902.54;;;5.75;100.00
37304;BME280;23188;51.188;16.374;2023-02-02T10:28:18;99900.61;;;5.90;98.69
37304;BME280;23188;51.188;16.374;2023-02-02T10:32:26;99902.06;;;6.03;96.84
37304;BME280;23188;51.188;16.374;2023-02-02T10:36:42;99889.95;;;6.02;93.45
37304;BME280;23188;51.188;16.374;2023-02-02T10:45:18;99897.91;;;6.09;90.36
37304;BME280;23188;51.188;16.374;2023-02-02T10:49:34;99902.95;;;6.08;91.58
37304;BME280;23188;51.188;16.374;2023-02-02T10:53:37;99903.23;;;6.06;92.82
37304;BME280;23188;51.188;16.374;2023-02-02T11:02:11;99900.83;;;6.21;92.57
37304;BME280;23188;51.188;16.374;2023-02-02T11:06:22;99914.84;;;6.17;91.86
37304;BME280;23188;51.188;16.374;2023-02-02T11:10:44;99922.02;;;6.20;92.48
37304;BME280;23188;51.188;16.374;2023-02-02T11:18:59;99920.30;;;6.45;92.30
37304;BME280;23188;51.188;16.374;2023-02-02T11:23:03;99936.09;;;6.41;89.34
37304;BME280;23188;51.188;16.374;2023-02-02T11:27:29;99943.59;;;6.54;91.14
37304;BME280;23188;51.188;16.374;2023-02-02T11:31:35;99929.41;;;6.71;89.28
37304;BME280;23188;51.188;16.374;2023-02-02T11:35:56;99940.29;;;6.44;87.53
37304;BME280;23188;51.188;16.374;2023-02-02T11:40:27;99948.04;;;6.36;87.87
37304;BME280;23188;51.188;16.374;2023-02-02T11:44:34;99947.84;;;6.18;87.28
37304;BME280;23188;51.188;16.374;2023-02-02T11:48:51;99952.39;;;6.03;86.84
37304;BME280;23188;51.188;16.374;2023-02-02T11:52:58;99957.56;;;6.02;86.94
37304;BME280;23188;51.188;16.374;2023-02-02T11:57:07;99960.27;;;6.04;85.88
37304;BME280;23188;51.188;16.374;2023-02-02T12:01:27;99963.61;;;6.06;83.36
37304;BME280;23188;51.188;16.374;2023-02-02T12:05:34;99971.55;;;6.14;81.36
37304;BME280;23188;51.188;16.374;2023-02-02T12:09:37;99967.67;;;6.22;76.27
37304;BME280;23188;51.188;16.374;2023-02-02T12:14:04;99968.30;;;6.26;74.59
37304;BME280;23188;51.188;16.374;2023-02-02T12:22:57;99971.05;;;6.22;71.95
37304;BME280;23188;51.188;16.374;2023-02-02T12:31:24;99987.47;;;6.39;71.64
37304;BME280;23188;51.188;16.374;2023-02-02T12:40:25;100003.43;;;6.65;69.63
37304;BME280;23188;51.188;16.374;2023-02-02T12:58:38;100021.04;;;6.53;70.02
37304;BME280;23188;51.188;16.374;2023-02-02T13:06:36;100040.66;;;6.39;69.30
37304;BME280;23188;51.188;16.374;2023-02-02T13:10:52;100042.88;;;6.37;70.00
37304;BME280;23188;51.188;16.374;2023-02-02T13:15:02;100042.42;;;6.36;70.78
37304;BME280;23188;51.188;16.374;2023-02-02T13:19:20;100054.05;;;6.31;70.92
37304;BME280;23188;51.188;16.374;2023-02-02T13:23:50;100062.30;;;6.29;72.19
37304;BME280;23188;51.188;16.374;2023-02-02T13:27:58;100067.30;;;6.31;74.37
37304;BME280;23188;51.188;16.374;2023-02-02T13:32:25;100076.52;;;6.27;76.27
37304;BME280;23188;51.188;16.374;2023-02-02T13:36:34;100078.21;;;6.15;76.18
37304;BME280;23188;51.188;16.374;2023-02-02T13:40:40;100068.91;;;6.03;76.73
37304;BME280;23188;51.188;16.374;2023-02-02T13:44:50;100084.58;;;5.92;79.23
37304;BME280;23188;51.188;16.374;2023-02-02T13:53:26;100094.84;;;6.14;80.80
37304;BME280;23188;51.188;16.374;2023-02-02T13:58:07;100094.86;;;6.42;80.98
37304;BME280;23188;51.188;16.374;2023-02-02T14:02:27;100102.98;;;6.56;79.39
37304;BME280;23188;51.188;16.374;2023-02-02T14:06:51;100114.27;;;6.39;80.63
37304;BME280;23188;51.188;16.374;2023-02-02T14:14:56;100137.16;;;6.26;79.22
37304;BME280;23188;51.188;16.374;2023-02-02T14:18:59;100142.09;;;6.31;80.72
37304;BME280;23188;51.188;16.374;2023-02-02T14:23:06;100158.48;;;6.34;81.27
37304;BME280;23188;51.188;16.374;2023-02-02T14:31:42;100187.80;;;6.24;83.75
37304;BME280;23188;51.188;16.374;2023-02-02T14:35:57;100194.73;;;6.04;85.59
37304;BME280;23188;51.188;16.374;2023-02-02T14:44:08;100204.87;;;5.63;87.42
37304;BME280;23188;51.188;16.374;2023-02-02T14:52:21;100240.89;;;5.31;91.54
37304;BME280;23188;51.188;16.374;2023-02-02T14:56:45;100253.20;;;5.01;93.42
37304;BME280;23188;51.188;16.374;2023-02-02T15:01:03;100267.09;;;4.95;95.10
37304;BME280;23188;51.188;16.374;2023-02-02T15:09:35;100272.42;;;4.73;93.50
37304;BME280;23188;51.188;16.374;2023-02-02T15:13:38;100281.81;;;4.65;92.36
37304;BME280;23188;51.188;16.374;2023-02-02T15:21:44;100294.95;;;4.47;89.68
37304;BME280;23188;51.188;16.374;2023-02-02T15:25:53;100310.05;;;4.37;90.67
37304;BME280;23188;51.188;16.374;2023-02-02T15:30:03;100325.88;;;4.18;91.75
37304;BME280;23188;51.188;16.374;2023-02-02T15:34:15;100327.36;;;4.10;92.48
37304;BME280;23188;51.188;16.374;2023-02-02T15:38:18;100346.12;;;3.97;93.03
37304;BME280;23188;51.188;16.374;2023-02-02T15:42:46;100355.26;;;3.87;93.29
37304;BME280;23188;51.188;16.374;2023-02-02T15:46:56;100369.98;;;3.70;92.90
37304;BME280;23188;51.188;16.374;2023-02-02T15:51:02;100386.67;;;3.66;92.00
37304;BME280;23188;51.188;16.374;2023-02-02T15:59:25;100405.20;;;3.63;90.22
37304;BME280;23188;51.188;16.374;2023-02-02T16:03:35;100420.89;;;3.58;89.41
37304;BME280;23188;51.188;16.374;2023-02-02T16:07:39;100433.11;;;3.56;87.97
37304;BME280;23188;51.188;16.374;2023-02-02T16:11:43;100446.10;;;3.55;86.34
37304;BME280;23188;51.188;16.374;2023-02-02T16:15:56;100457.45;;;3.53;85.47
37304;BME280;23188;51.188;16.374;2023-02-02T16:20:03;100474.86;;;3.52;85.01
37304;BME280;23188;51.188;16.374;2023-02-02T16:24:25;100484.85;;;3.41;85.76
37304;BME280;23188;51.188;16.374;2023-02-02T16:28:28;100496.50;;;3.40;86.51
37304;BME280;23188;51.188;16.374;2023-02-02T16:32:36;100505.27;;;3.29;86.71
37304;BME280;23188;51.188;16.374;2023-02-02T16:36:39;100523.91;;;3.23;86.69
37304;BME280;23188;51.188;16.374;2023-02-02T16:40:42;100529.77;;;3.22;86.45
37304;BME280;23188;51.188;16.374;2023-02-02T16:44:44;100547.95;;;3.19;85.92
37304;BME280;23188;51.188;16.374;2023-02-02T16:48:59;100563.86;;;3.16;86.12
37304;BME280;23188;51.188;16.374;2023-02-02T16:53:03;100574.64;;;3.10;87.23
37304;BME280;23188;51.188;16.374;2023-02-02T16:57:06;100583.63;;;3.09;86.94
37304;BME280;23188;51.188;16.374;2023-02-02T17:01:15;100594.85;;;3.09;87.19
37304;BME280;23188;51.188;16.374;2023-02-02T17:05:25;100611.72;;;3.12;87.11
37304;BME280;23188;51.188;16.374;2023-02-02T17:09:39;100624.17;;;3.12;87.73
37304;BME280;23188;51.188;16.374;2023-02-02T17:13:42;100625.58;;;3.12;88.41
37304;BME280;23188;51.188;16.374;2023-02-02T17:17:48;100638.30;;;2.97;88.53
37304;BME280;23188;51.188;16.374;2023-02-02T17:21:50;100650.41;;;2.85;87.96
37304;BME280;23188;51.188;16.374;2023-02-02T17:25:55;100659.56;;;2.76;87.81
37304;BME280;23188;51.188;16.374;2023-02-02T17:30:02;100672.81;;;2.61;88.26
37304;BME280;23188;51.188;16.374;2023-02-02T17:34:11;100684.44;;;2.42;88.84
37304;BME280;23188;51.188;16.374;2023-02-02T17:38:19;100697.70;;;2.21;88.88
37304;BME280;23188;51.188;16.374;2023-02-02T17:42:27;100708.06;;;2.02;87.93
37304;BME280;23188;51.188;16.374;2023-02-02T17:46:31;100719.36;;;2.08;86.23
37304;BME280;23188;51.188;16.374;2023-02-02T17:50:33;100726.77;;;2.16;84.45
37304;BME280;23188;51.188;16.374;2023-02-02T17:54:38;100731.23;;;2.19;83.55
37304;BME280;23188;51.188;16.374;2023-02-02T17:58:39;100742.09;;;2.18;81.63
37304;BME280;23188;51.188;16.374;2023-02-02T18:07:07;100748.66;;;2.20;80.83
37304;BME280;23188;51.188;16.374;2023-02-02T18:11:21;100754.23;;;2.21;80.42
37304;BME280;23188;51.188;16.374;2023-02-02T18:15:23;100758.13;;;2.20;80.35
37304;BME280;23188;51.188;16.374;2023-02-02T18:19:32;100761.98;;;2.15;80.03
37304;BME280;23188;51.188;16.374;2023-02-02T18:23:34;100767.11;;;2.13;79.40
37304;BME280;23188;51.188;16.374;2023-02-02T18:27:36;100771.16;;;2.08;79.39
37304;BME280;23188;51.188;16.374;2023-02-02T18:31:42;100784.04;;;2.10;79.05
37304;BME280;23188;51.188;16.374;2023-02-02T18:35:45;100787.13;;;1.98;80.68
37304;BME280;23188;51.188;16.374;2023-02-02T18:39:47;100798.27;;;1.85;82.28
37304;BME280;23188;51.188;16.374;2023-02-02T18:43:59;100808.59;;;1.70;83.78
37304;BME280;23188;51.188;16.374;2023-02-02T18:48:01;100822.89;;;1.67;84.49
37304;BME280;23188;51.188;16.374;2023-02-02T18:52:05;100827.50;;;1.65;83.89
37304;BME280;23188;51.188;16.374;2023-02-02T18:56:08;100830.29;;;1.70;82.89
37304;BME280;23188;51.188;16.374;2023-02-02T19:00:11;100835.41;;;1.69;83.56
37304;BME280;23188;51.188;16.374;2023-02-02T19:04:15;100840.88;;;1.63;84.71
37304;BME280;23188;51.188;16.374;2023-02-02T19:08:17;100839.14;;;1.58;85.01
37304;BME280;23188;51.188;16.374;2023-02-02T19:12:18;100839.49;;;1.57;84.11
37304;BME280;23188;51.188;16.374;2023-02-02T19:16:24;100843.73;;;1.61;83.52
37304;BME280;23188;51.188;16.374;2023-02-02T19:20:27;100859.13;;;1.61;83.71
37304;BME280;23188;51.188;16.374;2023-02-02T19:24:38;100865.81;;;1.59;84.22
37304;BME280;23188;51.188;16.374;2023-02-02T19:29:32;100876.16;;;1.48;85.41
37304;BME280;23188;51.188;16.374;2023-02-02T19:33:43;100883.44;;;1.45;85.34
37304;BME280;23188;51.188;16.374;2023-02-02T19:37:46;100890.73;;;1.41;86.65
37304;BME280;23188;51.188;16.374;2023-02-02T19:41:50;100894.77;;;1.35;87.72
37304;BME280;23188;51.188;16.374;2023-02-02T19:46:14;100904.41;;;1.19;89.29
37304;BME280;23188;51.188;16.374;2023-02-02T19:50:25;100912.77;;;1.14;89.89
37304;BME280;23188;51.188;16.374;2023-02-02T19:54:33;100923.05;;;0.98;92.02
37304;BME280;23188;51.188;16.374;2023-02-02T19:58:36;100925.98;;;0.88;93.15
37304;BME280;23188;51.188;16.374;2023-02-02T20:07:09;100929.25;;;0.79;94.64
37304;BME280;23188;51.188;16.374;2023-02-02T20:11:32;100932.48;;;0.69;95.86
37304;BME280;23188;51.188;16.374;2023-02-02T20:15:37;100931.23;;;0.65;96.42
37304;BME280;23188;51.188;16.374;2023-02-02T20:24:35;100948.42;;;0.50;97.38
37304;BME280;23188;51.188;16.374;2023-02-02T20:28:48;100949.96;;;0.44;98.24
37304;BME280;23188;51.188;16.374;2023-02-02T20:32:56;100957.23;;;0.40;98.73
37304;BME280;23188;51.188;16.374;2023-02-02T20:37:26;100963.29;;;0.36;99.48
37304;BME280;23188;51.188;16.374;2023-02-02T20:41:29;100970.46;;;0.29;100.00
37304;BME280;23188;51.188;16.374;2023-02-02T20:45:31;100975.05;;;0.33;99.85
37304;BME280;23188;51.188;16.374;2023-02-02T20:49:33;100978.20;;;0.34;99.98
37304;BME280;23188;51.188;16.374;2023-02-02T20:53:37;100980.02;;;0.36;99.91
37304;BME280;23188;51.188;16.374;2023-02-02T20:57:41;100979.01;;;0.36;99.85
37304;BME280;23188;51.188;16.374;2023-02-02T21:01:43;100982.08;;;0.38;99.30
37304;BME280;23188;51.188;16.374;2023-02-02T21:05:44;100984.80;;;0.47;97.89
37304;BME280;23188;51.188;16.374;2023-02-02T21:09:47;100988.81;;;0.53;96.00
37304;BME280;23188;51.188;16.374;2023-02-02T21:13:49;100987.89;;;0.61;95.45
37304;BME280;23188;51.188;16.374;2023-02-02T21:17:51;100989.25;;;0.68;94.64
37304;BME280;23188;51.188;16.374;2023-02-02T21:21:53;100988.23;;;0.68;94.03
37304;BME280;23188;51.188;16.374;2023-02-02T21:25:57;100989.95;;;0.68;93.99
37304;BME280;23188;51.188;16.374;2023-02-02T21:30:03;100988.64;;;0.72;93.79
37304;BME280;23188;51.188;16.374;2023-02-02T21:34:05;100984.15;;;0.70;93.50
37304;BME280;23188;51.188;16.374;2023-02-02T21:38:14;100984.06;;;0.73;93.25
37304;BME280;23188;51.188;16.374;2023-02-02T21:42:20;100984.63;;;0.71;93.04
37304;BME280;23188;51.188;16.374;2023-02-02T21:46:32;100983.55;;;0.72;92.81
37304;BME280;23188;51.188;16.374;2023-02-02T21:50:39;100980.54;;;0.68;92.87
37304;BME280;23188;51.188;16.374;2023-02-02T21:59:41;100976.80;;;0.46;95.19
37304;BME280;23188;51.188;16.374;2023-02-02T22:03:51;100979.70;;;0.42;95.47
37304;BME280;23188;51.188;16.374;2023-02-02T22:07:56;100984.35;;;0.25;96.59
37304;BME280;23188;51.188;16.374;2023-02-02T22:12:00;100985.99;;;0.10;96.30
37304;BME280;23188;51.188;16.374;2023-02-02T22:20:58;100986.00;;;0.16;95.23
37304;BME280;23188;51.188;16.374;2023-02-02T22:25:36;100986.90;;;0.21;94.29
37304;BME280;23188;51.188;16.374;2023-02-02T22:29:38;100996.86;;;0.27;93.54
37304;BME280;23188;51.188;16.374;2023-02-02T22:33:43;100997.13;;;0.36;93.35
37304;BME280;23188;51.188;16.374;2023-02-02T22:37:45;100999.83;;;0.46;92.90
37304;BME280;23188;51.188;16.374;2023-02-02T22:42:12;101002.90;;;0.49;92.74
37304;BME280;23188;51.188;16.374;2023-02-02T22:46:31;100999.06;;;0.36;92.78
37304;BME280;23188;51.188;16.374;2023-02-02T22:50:33;100996.80;;;0.42;93.37
37304;BME280;23188;51.188;16.374;2023-02-02T22:54:36;100995.20;;;0.55;93.07
37304;BME280;23188;51.188;16.374;2023-02-02T22:58:38;100995.50;;;0.69;92.70
37304;BME280;23188;51.188;16.374;2023-02-02T23:02:40;100997.60;;;0.82;92.00
37304;BME280;23188;51.188;16.374;2023-02-02T23:06:42;100999.13;;;0.89;91.22
37304;BME280;23188;51.188;16.374;2023-02-02T23:10:43;100999.16;;;0.88;89.69
37304;BME280;23188;51.188;16.374;2023-02-02T23:14:47;101000.76;;;0.82;89.49
37304;BME280;23188;51.188;16.374;2023-02-02T23:18:48;101001.79;;;0.76;89.39
37304;BME280;23188;51.188;16.374;2023-02-02T23:28:04;101000.70;;;0.65;89.96
37304;BME280;23188;51.188;16.374;2023-02-02T23:37:10;100998.32;;;0.56;91.71
37304;BME280;23188;51.188;16.374;2023-02-02T23:46:03;100993.45;;;0.55;92.65
37304;BME280;23188;51.188;16.374;2023-02-02T23:50:06;100996.58;;;0.63;93.54
37304;BME280;23188;51.188;16.374;2023-02-02T23:59:07;101008.52;;;0.72;95.11
